createdAt,value
2022-08-02T00:04:40.096Z,62.0
2022-08-02T00:18:40.134Z,61.0
2022-08-02T00:32:40.136Z,57.0
2022-08-02T00:46:40.121Z,54.0
2022-08-02T01:00:40.160Z,57.0
2022-08-02T01:14:40.172Z,57.0
2022-08-02T01:28:40.189Z,51.0
2022-08-02T01:42:40.185Z,50.0
2022-08-02T01:56:40.198Z,50.0
2022-08-02T02:10:40.244Z,48.0
2022-08-02T02:24:40.219Z,50.0
2022-08-02T02:38:40.339Z,54.0
2022-08-02T02:52:40.261Z,63.0
2022-08-02T03:06:40.274Z,80.0
2022-08-02T03:20:40.291Z,86.0
2022-08-02T03:34:40.301Z,87.0
2022-08-02T03:48:40.332Z,84.0
2022-08-02T04:02:40.321Z,86.0
2022-08-02T04:17:40.374Z,92.0
2022-08-02T04:32:40.394Z,92.0
2022-08-02T04:48:01.740Z,85.0
2022-08-02T05:01:40.412Z,86.0
2022-08-02T05:16:40.415Z,92.0
2022-08-02T05:31:40.819Z,91.0
2022-08-02T05:46:40.896Z,93.0
2022-08-02T06:01:41.008Z,93.0
2022-08-02T06:17:41.759Z,95.0
2022-08-02T06:32:40.922Z,96.0
2022-08-02T06:47:40.988Z,95.0
2022-08-02T07:02:40.967Z,95.0
2022-08-02T07:17:40.969Z,94.0
2022-08-02T07:32:40.979Z,93.0
2022-08-02T07:47:40.976Z,90.0
2022-08-02T08:02:40.975Z,86.0
2022-08-02T08:17:41.206Z,82.0
2022-08-02T08:32:41.155Z,77.0
2022-08-02T08:47:41.166Z,73.0
2022-08-02T09:02:41.167Z,68.0
2022-08-02T09:17:41.158Z,61.0
2022-08-02T09:32:41.168Z,53.0
2022-08-02T09:47:41.174Z,47.0
2022-08-02T10:02:41.212Z,44.0
2022-08-02T10:17:41.970Z,44.0
2022-08-02T10:32:41.376Z,42.0
2022-08-02T10:50:59.504Z,47.0
2022-08-02T11:06:00.154Z,45.0
2022-08-02T11:21:00.816Z,41.0
2022-08-02T11:37:00.872Z,42.0
2022-08-02T11:52:00.726Z,38.0
2022-08-02T12:08:01.229Z,41.0
2022-08-02T12:23:01.068Z,41.0
2022-08-02T12:38:01.044Z,39.0
2022-08-02T12:53:01.152Z,37.0
2022-08-02T13:08:01.152Z,36.0
2022-08-02T13:23:02.868Z,37.0
2022-08-02T13:38:01.182Z,33.0
2022-08-02T13:53:01.201Z,32.0
2022-08-02T14:08:01.693Z,33.0
2022-08-02T14:23:01.265Z,33.0
2022-08-02T14:38:01.294Z,32.0
2022-08-02T14:53:01.316Z,33.0
2022-08-02T15:08:01.319Z,32.0
2022-08-02T15:23:01.757Z,32.0
2022-08-02T15:38:01.804Z,32.0
2022-08-02T15:53:01.497Z,31.0
2022-08-02T16:08:01.610Z,30.0
2022-08-02T16:23:04.397Z,32.0
2022-08-02T16:38:02.099Z,33.0
2022-08-02T16:53:07.023Z,33.0
2022-08-02T17:08:07.021Z,37.0
2022-08-02T17:23:02.101Z,46.0
2022-08-02T17:38:02.068Z,48.0
2022-08-02T17:53:02.069Z,52.0
2022-08-02T18:08:01.898Z,55.0
2022-08-02T18:23:02.236Z,59.0
2022-08-02T18:38:03.722Z,62.0
2022-08-02T18:53:02.036Z,62.0
2022-08-02T19:08:02.110Z,60.0
2022-08-02T19:23:02.062Z,61.0
2022-08-02T19:37:02.120Z,66.0
2022-08-02T19:51:02.170Z,63.0
2022-08-02T20:05:08.254Z,65.0
2022-08-02T20:19:02.144Z,71.0
2022-08-02T20:33:02.633Z,72.0
2022-08-02T20:47:02.314Z,68.0
2022-08-02T21:01:02.284Z,69.0
2022-08-02T21:15:02.300Z,69.0
2022-08-02T21:29:03.434Z,63.0
2022-08-02T21:43:02.308Z,67.0
2022-08-02T21:57:02.382Z,70.0
2022-08-02T22:11:03.119Z,72.0
2022-08-02T22:25:04.162Z,69.0
2022-08-02T22:39:02.451Z,70.0
2022-08-02T22:53:02.989Z,69.0
2022-08-02T23:07:02.481Z,68.0
2022-08-02T23:21:02.507Z,69.0
2022-08-02T23:35:02.516Z,71.0
2022-08-02T23:49:02.538Z,72.0
